Terminal Aerodrome Forecast
Issued by NWS

Home | Current Version | Previous Version | Text Only | Print | Product List | Glossary On
Versions: 1 2 3 4 5 6 7 8 9 10 11 12 13 14 15 16
971
FTUS43 KJKL 290538
TAFSJS
TAF
KSJS 290538Z 2906/3006 24004KT P6SM VCTS BKN040CB
     FM290700 VRB06KT P6SM VCTS SCT035 BKN050CB
     FM291000 27004KT 3SM BR BKN025
     FM291300 27004KT P6SM BKN080=

USA.gov is the U.S. government's official web portal to all federal, state and local government web resources and services.